Airport details for: LOWS (Austria)

Metar

LOWS 180320Z AUTO 14005KT 110V180 9999 SCT240 06/06 Q1018

General details

ICAO: LOWS
IATA: SZG
Name (city): Salzburg
Major:
Country: Austria
vACC: vACC Austria
Description:

http://www.vacc-austria.org/airports/LOWS

Scenery links:
FS9 scenery: Download
FSX/P3D scenery: Download
XP scenery: Download
Elevation: 1411 ft.
Transition altitude: 6000 ft.
MSA: 9000 ft.
Latitude: 47.794445
Longitude: 13.003333
LOWS Charts
LOWS Notams
LOWS Online stations

Runways

Number Course Length Elevation Lat Lon ILS ILS freq ILS FAC GP
15 154° 9022ft / 2750 m 1411ft 47.803145 12.997747 109.9 154° 3.0°
33 334° 9022ft / 2750 m 1411ft 47.784047 13.009817 - - 3.0°